Terminal Aerodrome Forecast
Issued by NWS Greer, SC

Home | Current Version | Previous Version | Text Only | Print | Product List | Glossary On
Versions: 1 2 3 4 5 6 7 8 9 10 11 12 13 14 15 16 17 18 19 20 21 22 23 24 25 26 27 28 29 30 31 32 33 34 35 36 37 38 39 40 41 42 43 44 45 46 47 48 49 50
000
FTUS42 KGSP 191314 AAA
TAFCLT
TAF AMD
KCLT 191314Z 1913/2012 12009KT 6SM -SHRA BR OVC006
      TEMPO 1913/1915 2SM +SHRA BR OVC002
     FM191500 14011KT 1 1/2SM SHRA BR OVC003
     FM192100 12011G19KT 2SM SHRA BR OVC003 PROB30 1922/2003 2SM
      TSRA OVC003CB
     FM200300 18010KT P6SM BKN003 PROB30 2003/2007 4SM TSRA BKN003CB
     FM200700 20008KT P6SM OVC015
     FM201000 20008KT P6SM BKN008=

USA.gov is the U.S. government's official web portal to all federal, state and local government web resources and services.